sensor_id;sensor_type;location;lat;lon;timestamp;pressure;altitude;pressure_sealevel;temperature;humidity
6028;BME280;3042;43.194;27.646;2023-09-30T00:00:27;101691.31;;;25.45;97.41
6028;BME280;3042;43.194;27.646;2023-09-30T00:02:54;101687.75;;;25.54;97.84
6028;BME280;3042;43.194;27.646;2023-09-30T00:05:22;101686.88;;;25.47;96.59
6028;BME280;3042;43.194;27.646;2023-09-30T00:07:49;101680.69;;;25.59;96.26
6028;BME280;3042;43.194;27.646;2023-09-30T00:10:16;101621.63;;;25.40;94.87
6028;BME280;3042;43.194;27.646;2023-09-30T00:12:44;101462.25;;;24.53;93.64
6028;BME280;3042;43.194;27.646;2023-09-30T00:15:11;101667.38;;;25.86;92.96
6028;BME280;3042;43.194;27.646;2023-09-30T00:17:39;101667.31;;;25.99;93.71
6028;BME280;3042;43.194;27.646;2023-09-30T00:20:07;101671.78;;;25.94;91.49
6028;BME280;3042;43.194;27.646;2023-09-30T00:22:34;101658.47;;;26.09;89.74
6028;BME280;3042;43.194;27.646;2023-09-30T00:25:01;101661.06;;;26.18;89.24
6028;BME280;3042;43.194;27.646;2023-09-30T00:27:28;101661.13;;;26.09;86.85
6028;BME280;3042;43.194;27.646;2023-09-30T00:29:57;101664.69;;;26.02;86.48
6028;BME280;3042;43.194;27.646;2023-09-30T00:32:24;101663.78;;;26.03;85.77
6028;BME280;3042;43.194;27.646;2023-09-30T00:34:51;101662.88;;;26.10;85.50
6028;BME280;3042;43.194;27.646;2023-09-30T00:37:19;101670.91;;;25.93;85.18
6028;BME280;3042;43.194;27.646;2023-09-30T00:39:46;101661.97;;;26.13;85.75
6028;BME280;3042;43.194;27.646;2023-09-30T00:42:13;101665.53;;;26.07;85.00
6028;BME280;3042;43.194;27.646;2023-09-30T00:44:40;101664.69;;;25.96;84.65
6028;BME280;3042;43.194;27.646;2023-09-30T00:47:09;101648.84;;;25.93;85.52
6028;BME280;3042;43.194;27.646;2023-09-30T00:49:36;101661.97;;;26.08;84.64
6028;BME280;3042;43.194;27.646;2023-09-30T00:52:04;101666.44;;;26.03;84.41
6028;BME280;3042;43.194;27.646;2023-09-30T00:54:31;101668.25;;;25.95;84.05
6028;BME280;3042;43.194;27.646;2023-09-30T00:56:58;101662.03;;;26.00;84.12
6028;BME280;3042;43.194;27.646;2023-09-30T00:59:29;101667.38;;;25.83;83.37
6028;BME280;3042;43.194;27.646;2023-09-30T01:01:59;101659.38;;;26.02;83.64
6028;BME280;3042;43.194;27.646;2023-09-30T01:04:28;101659.38;;;26.05;83.29
6028;BME280;3042;43.194;27.646;2023-09-30T01:06:56;101666.50;;;25.90;82.85
6028;BME280;3042;43.194;27.646;2023-09-30T01:09:24;101666.47;;;25.84;82.87
6028;BME280;3042;43.194;27.646;2023-09-30T01:11:51;101669.13;;;25.89;81.88
6028;BME280;3042;43.194;27.646;2023-09-30T01:14:26;101664.66;;;26.05;81.86
6028;BME280;3042;43.194;27.646;2023-09-30T01:16:54;101668.25;;;25.92;81.28
6028;BME280;3042;43.194;27.646;2023-09-30T01:19:21;101667.41;;;25.89;80.96
6028;BME280;3042;43.194;27.646;2023-09-30T01:21:52;101675.34;;;25.86;80.61
6028;BME280;3042;43.194;27.646;2023-09-30T01:24:20;101626.09;;;25.21;88.42
6028;BME280;3042;43.194;27.646;2023-09-30T01:26:48;101360.06;;;23.08;91.94
6028;BME280;3042;43.194;27.646;2023-09-30T01:29:15;101715.94;;;24.50;94.78
6028;BME280;3042;43.194;27.646;2023-09-30T01:31:42;101491.91;;;23.11;98.58
6028;BME280;3042;43.194;27.646;2023-09-30T01:34:13;101717.66;;;24.37;100.00
6028;BME280;3042;43.194;27.646;2023-09-30T01:36:41;101716.75;;;24.31;100.00
6028;BME280;3042;43.194;27.646;2023-09-30T01:39:10;101715.88;;;24.41;100.00
6028;BME280;3042;43.194;27.646;2023-09-30T01:41:37;101718.53;;;24.42;100.00
6028;BME280;3042;43.194;27.646;2023-09-30T01:44:05;101717.69;;;24.48;100.00
6028;BME280;3042;43.194;27.646;2023-09-30T01:46:32;101714.97;;;24.23;100.00
6028;BME280;3042;43.194;27.646;2023-09-30T01:49:00;101721.06;;;24.07;100.00
6028;BME280;3042;43.194;27.646;2023-09-30T01:51:27;101583.31;;;23.15;100.00
6028;BME280;3042;43.194;27.646;2023-09-30T01:53:55;101729.72;;;23.77;100.00
6028;BME280;3042;43.194;27.646;2023-09-30T01:56:24;101734.94;;;23.72;100.00
6028;BME280;3042;43.194;27.646;2023-09-30T01:58:51;101726.09;;;23.67;100.00
6028;BME280;3042;43.194;27.646;2023-09-30T02:01:18;101722.75;;;23.93;100.00
6028;BME280;3042;43.194;27.646;2023-09-30T02:03:45;101728.88;;;23.84;98.39
6028;BME280;3042;43.194;27.646;2023-09-30T02:06:12;101723.66;;;24.04;93.19
6028;BME280;3042;43.194;27.646;2023-09-30T02:08:39;101724.59;;;24.18;90.81
6028;BME280;3042;43.194;27.646;2023-09-30T02:11:07;101720.28;;;24.43;89.41
6028;BME280;3042;43.194;27.646;2023-09-30T02:13:36;101723.81;;;24.44;87.88
6028;BME280;3042;43.194;27.646;2023-09-30T02:16:03;101721.22;;;24.50;86.68
6028;BME280;3042;43.194;27.646;2023-09-30T02:18:30;101708.97;;;24.80;86.78
6028;BME280;3042;43.194;27.646;2023-09-30T02:20:59;101707.22;;;24.91;85.77
6028;BME280;3042;43.194;27.646;2023-09-30T02:23:26;101656.06;;;24.61;85.12
6028;BME280;3042;43.194;27.646;2023-09-30T02:25:53;101702.78;;;25.07;85.15
6028;BME280;3042;43.194;27.646;2023-09-30T02:28:20;101700.16;;;25.05;85.05
6028;BME280;3042;43.194;27.646;2023-09-30T02:30:49;101695.72;;;25.04;84.36
6028;BME280;3042;43.194;27.646;2023-09-30T02:33:16;101700.16;;;25.21;84.30
6028;BME280;3042;43.194;27.646;2023-09-30T02:35:44;101689.56;;;25.30;84.44
6028;BME280;3042;43.194;27.646;2023-09-30T02:38:12;101641.97;;;24.84;83.75
6028;BME280;3042;43.194;27.646;2023-09-30T02:40:41;101704.56;;;25.08;83.10
6028;BME280;3042;43.194;27.646;2023-09-30T02:43:12;101704.53;;;25.10;83.52
6028;BME280;3042;43.194;27.646;2023-09-30T02:45:39;101705.44;;;25.09;82.91
6028;BME280;3042;43.194;27.646;2023-09-30T02:48:07;101703.69;;;25.11;82.96
6028;BME280;3042;43.194;27.646;2023-09-30T02:50:35;101696.66;;;25.22;82.98
6028;BME280;3042;43.194;27.646;2023-09-30T02:53:02;101589.13;;;24.56;83.01
6028;BME280;3042;43.194;27.646;2023-09-30T02:55:29;101707.22;;;25.13;83.03
6028;BME280;3042;43.194;27.646;2023-09-30T02:57:57;101704.59;;;25.20;82.72
6028;BME280;3042;43.194;27.646;2023-09-30T03:00:26;101698.41;;;25.23;82.79
6028;BME280;3042;43.194;27.646;2023-09-30T03:03:00;101624.34;;;24.89;82.56
6028;BME280;3042;43.194;27.646;2023-09-30T03:05:30;101692.22;;;25.25;82.11
6028;BME280;3042;43.194;27.646;2023-09-30T03:07:59;101641.97;;;24.90;82.31
6028;BME280;3042;43.194;27.646;2023-09-30T03:10:27;101682.50;;;25.11;82.11
6028;BME280;3042;43.194;27.646;2023-09-30T03:12:54;101694.88;;;25.21;82.25
6028;BME280;3042;43.194;27.646;2023-09-30T03:15:22;101417.28;;;23.46;81.82
6028;BME280;3042;43.194;27.646;2023-09-30T03:17:50;101701.91;;;25.16;82.45
6028;BME280;3042;43.194;27.646;2023-09-30T03:20:17;101706.34;;;25.27;84.06
6028;BME280;3042;43.194;27.646;2023-09-30T03:22:47;101708.94;;;25.17;84.72
6028;BME280;3042;43.194;27.646;2023-09-30T03:25:16;101709.81;;;24.96;89.11
6028;BME280;3042;43.194;27.646;2023-09-30T03:27:44;101723.91;;;24.79;91.11
6028;BME280;3042;43.194;27.646;2023-09-30T03:30:12;101743.09;;;24.15;93.27
6028;BME280;3042;43.194;27.646;2023-09-30T03:32:40;101740.31;;;23.82;92.14
6028;BME280;3042;43.194;27.646;2023-09-30T03:35:09;101742.06;;;23.86;92.23
6028;BME280;3042;43.194;27.646;2023-09-30T03:37:40;101750.34;;;23.17;93.08
6028;BME280;3042;43.194;27.646;2023-09-30T03:40:10;101754.44;;;22.89;94.56
6028;BME280;3042;43.194;27.646;2023-09-30T03:42:40;101742.50;;;23.26;94.85
6028;BME280;3042;43.194;27.646;2023-09-30T03:45:09;101747.81;;;23.28;95.31
6028;BME280;3042;43.194;27.646;2023-09-30T03:47:37;101752.75;;;22.92;95.41
6028;BME280;3042;43.194;27.646;2023-09-30T03:50:05;101753.56;;;22.85;96.21
6028;BME280;3042;43.194;27.646;2023-09-30T03:52:38;101751.88;;;22.96;99.80
6028;BME280;3042;43.194;27.646;2023-09-30T03:55:06;101743.28;;;23.13;100.00
6028;BME280;3042;43.194;27.646;2023-09-30T03:57:34;101746.94;;;23.27;100.00
6028;BME280;3042;43.194;27.646;2023-09-30T04:00:02;101478.19;;;21.44;100.00
6028;BME280;3042;43.194;27.646;2023-09-30T04:02:31;101747.75;;;23.25;100.00
6028;BME280;3042;43.194;27.646;2023-09-30T04:04:59;101753.72;;;23.01;100.00
6028;BME280;3042;43.194;27.646;2023-09-30T04:07:29;101743.25;;;23.07;98.50
6028;BME280;3042;43.194;27.646;2023-09-30T04:09:56;101747.88;;;23.37;96.89
6028;BME280;3042;43.194;27.646;2023-09-30T04:12:26;101731.22;;;23.46;96.62
6028;BME280;3042;43.194;27.646;2023-09-30T04:14:55;101737.34;;;23.37;96.10
6028;BME280;3042;43.194;27.646;2023-09-30T04:17:24;101747.72;;;23.17;95.35
6028;BME280;3042;43.194;27.646;2023-09-30T04:19:52;101732.06;;;23.38;95.39
6028;BME280;3042;43.194;27.646;2023-09-30T04:22:19;101725.09;;;23.50;95.09
6028;BME280;3042;43.194;27.646;2023-09-30T04:24:48;101729.53;;;23.51;95.53
6028;BME280;3042;43.194;27.646;2023-09-30T04:27:16;101721.63;;;23.55;94.50
6028;BME280;3042;43.194;27.646;2023-09-30T04:29:43;101690.78;;;23.47;94.93
6028;BME280;3042;43.194;27.646;2023-09-30T04:32:11;101730.47;;;23.67;94.60
6028;BME280;3042;43.194;27.646;2023-09-30T04:34:39;101684.72;;;23.65;95.01
6028;BME280;3042;43.194;27.646;2023-09-30T04:37:06;101723.72;;;24.13;95.00
6028;BME280;3042;43.194;27.646;2023-09-30T04:39:34;101731.63;;;24.07;94.80
6028;BME280;3042;43.194;27.646;2023-09-30T04:42:02;101726.38;;;24.16;94.39
6028;BME280;3042;43.194;27.646;2023-09-30T04:44:30;101733.34;;;24.02;94.33
6028;BME280;3042;43.194;27.646;2023-09-30T04:46:58;101749.13;;;23.87;94.03
6028;BME280;3042;43.194;27.646;2023-09-30T04:49:27;101737.75;;;23.95;95.08
6028;BME280;3042;43.194;27.646;2023-09-30T04:51:54;101739.47;;;23.92;94.40
6028;BME280;3042;43.194;27.646;2023-09-30T04:54:21;101741.16;;;23.80;94.44
6028;BME280;3042;43.194;27.646;2023-09-30T04:56:49;101749.75;;;23.55;95.30
6028;BME280;3042;43.194;27.646;2023-09-30T04:59:16;101738.56;;;23.87;95.34
6028;BME280;3042;43.194;27.646;2023-09-30T05:01:43;101731.63;;;24.13;95.58
6028;BME280;3042;43.194;27.646;2023-09-30T05:04:10;101735.13;;;24.03;95.23
6028;BME280;3042;43.194;27.646;2023-09-30T05:06:39;101588.50;;;23.00;95.02
6028;BME280;3042;43.194;27.646;2023-09-30T05:09:07;101743.03;;;24.00;95.43
6028;BME280;3042;43.194;27.646;2023-09-30T05:11:35;101708.72;;;24.06;95.48
6028;BME280;3042;43.194;27.646;2023-09-30T05:14:02;101669.03;;;23.86;95.09
6028;BME280;3042;43.194;27.646;2023-09-30T05:16:31;101738.88;;;24.59;94.57
6028;BME280;3042;43.194;27.646;2023-09-30T05:18:58;101730.09;;;24.86;94.52
6028;BME280;3042;43.194;27.646;2023-09-30T05:21:25;101731.84;;;24.84;93.58
6028;BME280;3042;43.194;27.646;2023-09-30T05:23:54;101723.09;;;25.25;93.77
6028;BME280;3042;43.194;27.646;2023-09-30T05:26:22;101725.72;;;25.51;93.04
6028;BME280;3042;43.194;27.646;2023-09-30T05:28:49;101726.59;;;25.52;90.79
6028;BME280;3042;43.194;27.646;2023-09-30T05:31:16;101720.44;;;25.48;90.81
6028;BME280;3042;43.194;27.646;2023-09-30T05:33:43;101733.66;;;25.28;90.20
6028;BME280;3042;43.194;27.646;2023-09-30T05:36:10;101724.84;;;25.57;90.26
6028;BME280;3042;43.194;27.646;2023-09-30T05:38:39;101659.59;;;25.19;90.39
6028;BME280;3042;43.194;27.646;2023-09-30T05:41:08;101723.03;;;25.59;89.73
6028;BME280;3042;43.194;27.646;2023-09-30T05:43:37;101644.53;;;25.47;89.87
6028;BME280;3042;43.194;27.646;2023-09-30T05:46:05;101726.44;;;26.10;89.20
6028;BME280;3042;43.194;27.646;2023-09-30T05:48:32;101728.06;;;26.42;89.83
6028;BME280;3042;43.194;27.646;2023-09-30T05:51:00;101698.13;;;26.27;88.68
6028;BME280;3042;43.194;27.646;2023-09-30T05:53:28;101743.25;;;26.04;88.12
6028;BME280;3042;43.194;27.646;2023-09-30T05:55:58;101723.75;;;26.25;89.38
6028;BME280;3042;43.194;27.646;2023-09-30T05:58:26;101672.50;;;26.23;88.41
6028;BME280;3042;43.194;27.646;2023-09-30T06:00:53;101724.47;;;26.58;88.73
6028;BME280;3042;43.194;27.646;2023-09-30T06:03:21;101726.25;;;26.53;89.47
6028;BME280;3042;43.194;27.646;2023-09-30T06:05:48;101717.38;;;26.63;93.07
6028;BME280;3042;43.194;27.646;2023-09-30T06:08:15;101731.53;;;26.59;91.73
6028;BME280;3042;43.194;27.646;2023-09-30T06:10:42;101714.59;;;26.80;91.38
6028;BME280;3042;43.194;27.646;2023-09-30T06:13:10;101720.72;;;26.87;91.74
6028;BME280;3042;43.194;27.646;2023-09-30T06:15:39;101715.41;;;26.90;92.75
6028;BME280;3042;43.194;27.646;2023-09-30T06:18:07;101735.00;;;26.70;93.40
6028;BME280;3042;43.194;27.646;2023-09-30T06:20:35;101718.91;;;26.92;93.77
6028;BME280;3042;43.194;27.646;2023-09-30T06:23:02;101724.19;;;26.98;93.37
6028;BME280;3042;43.194;27.646;2023-09-30T06:25:30;101721.44;;;27.09;92.77
6028;BME280;3042;43.194;27.646;2023-09-30T06:27:59;101695.88;;;26.97;91.14
6028;BME280;3042;43.194;27.646;2023-09-30T06:30:26;101721.38;;;27.20;91.30
6028;BME280;3042;43.194;27.646;2023-09-30T06:32:56;101603.41;;;26.54;91.73
6028;BME280;3042;43.194;27.646;2023-09-30T06:35:25;101707.94;;;27.38;91.99
6028;BME280;3042;43.194;27.646;2023-09-30T06:37:52;101689.41;;;27.32;91.53
6028;BME280;3042;43.194;27.646;2023-09-30T06:40:19;101705.13;;;27.53;90.12
6028;BME280;3042;43.194;27.646;2023-09-30T06:42:47;101701.53;;;27.57;89.62
6028;BME280;3042;43.194;27.646;2023-09-30T06:45:14;101702.44;;;27.56;89.17
6028;BME280;3042;43.194;27.646;2023-09-30T06:47:43;101709.50;;;27.57;88.94
6028;BME280;3042;43.194;27.646;2023-09-30T06:50:13;101703.97;;;27.76;89.74
6028;BME280;3042;43.194;27.646;2023-09-30T06:52:42;101697.72;;;27.85;89.81
6028;BME280;3042;43.194;27.646;2023-09-30T06:55:11;101702.06;;;27.93;88.70
6028;BME280;3042;43.194;27.646;2023-09-30T06:57:40;101696.81;;;27.87;87.91
6028;BME280;3042;43.194;27.646;2023-09-30T07:00:08;101700.38;;;27.86;87.42
6028;BME280;3042;43.194;27.646;2023-09-30T07:02:37;101700.16;;;28.02;87.11
6028;BME280;3042;43.194;27.646;2023-09-30T07:05:06;101694.84;;;28.02;87.13
6028;BME280;3042;43.194;27.646;2023-09-30T07:07:35;101693.00;;;28.07;85.79
6028;BME280;3042;43.194;27.646;2023-09-30T07:10:02;101697.25;;;28.20;85.94
6028;BME280;3042;43.194;27.646;2023-09-30T07:12:31;101691.03;;;28.23;85.46
6028;BME280;3042;43.194;27.646;2023-09-30T07:15:01;101695.34;;;28.30;84.70
6028;BME280;3042;43.194;27.646;2023-09-30T07:17:28;101685.38;;;28.46;84.92
6028;BME280;3042;43.194;27.646;2023-09-30T07:19:55;101678.75;;;28.76;85.40
6028;BME280;3042;43.194;27.646;2023-09-30T07:22:22;101675.69;;;28.99;84.20
6028;BME280;3042;43.194;27.646;2023-09-30T07:24:51;101664.88;;;29.11;83.76
6028;BME280;3042;43.194;27.646;2023-09-30T07:27:18;101674.38;;;29.24;82.69
6028;BME280;3042;43.194;27.646;2023-09-30T07:29:45;101683.41;;;29.16;80.92
6028;BME280;3042;43.194;27.646;2023-09-30T07:32:13;101634.91;;;28.97;77.78
6028;BME280;3042;43.194;27.646;2023-09-30T07:34:40;101675.78;;;29.44;78.75
6028;BME280;3042;43.194;27.646;2023-09-30T07:37:08;101561.50;;;28.85;77.08
6028;BME280;3042;43.194;27.646;2023-09-30T07:39:35;101663.78;;;29.68;76.07
6028;BME280;3042;43.194;27.646;2023-09-30T07:42:04;101660.75;;;29.86;75.40
6028;BME280;3042;43.194;27.646;2023-09-30T07:44:31;101662.03;;;30.09;73.47
6028;BME280;3042;43.194;27.646;2023-09-30T07:46:58;101662.38;;;30.34;73.61
6028;BME280;3042;43.194;27.646;2023-09-30T07:49:25;101663.47;;;30.24;72.02
6028;BME280;3042;43.194;27.646;2023-09-30T07:51:53;101668.84;;;30.22;70.76
6028;BME280;3042;43.194;27.646;2023-09-30T07:54:20;101580.50;;;29.99;70.43
6028;BME280;3042;43.194;27.646;2023-09-30T07:56:47;101668.81;;;30.24;68.36
6028;BME280;3042;43.194;27.646;2023-09-30T07:59:16;101671.69;;;30.15;68.69
6028;BME280;3042;43.194;27.646;2023-09-30T08:01:43;101666.16;;;30.24;68.16
6028;BME280;3042;43.194;27.646;2023-09-30T08:04:10;101654.56;;;30.64;68.94
6028;BME280;3042;43.194;27.646;2023-09-30T08:06:37;101654.31;;;30.73;67.90
6028;BME280;3042;43.194;27.646;2023-09-30T08:09:05;101661.72;;;30.62;67.16
6028;BME280;3042;43.194;27.646;2023-09-30T08:11:35;101556.34;;;30.06;66.29
6028;BME280;3042;43.194;27.646;2023-09-30T08:14:03;101646.63;;;30.97;66.79
6028;BME280;3042;43.194;27.646;2023-09-30T08:16:33;101609.22;;;30.62;65.96
6028;BME280;3042;43.194;27.646;2023-09-30T08:19:01;101553.22;;;30.25;65.62
6028;BME280;3042;43.194;27.646;2023-09-30T08:21:28;101649.31;;;30.97;65.51
6028;BME280;3042;43.194;27.646;2023-09-30T08:23:55;101662.66;;;30.97;64.87
6028;BME280;3042;43.194;27.646;2023-09-30T08:26:23;101657.84;;;30.75;64.83
6028;BME280;3042;43.194;27.646;2023-09-30T08:28:51;101666.91;;;30.68;64.75
6028;BME280;3042;43.194;27.646;2023-09-30T08:31:18;101610.56;;;30.44;63.58
6028;BME280;3042;43.194;27.646;2023-09-30T08:33:48;101643.00;;;30.99;64.28
6028;BME280;3042;43.194;27.646;2023-09-30T08:36:15;101639.38;;;31.02;63.45
6028;BME280;3042;43.194;27.646;2023-09-30T08:38:42;101640.31;;;31.33;63.38
6028;BME280;3042;43.194;27.646;2023-09-30T08:41:10;101639.22;;;31.08;63.07
6028;BME280;3042;43.194;27.646;2023-09-30T08:43:38;101631.94;;;31.47;63.26
6028;BME280;3042;43.194;27.646;2023-09-30T08:46:06;101635.84;;;31.65;62.50
6028;BME280;3042;43.194;27.646;2023-09-30T08:48:34;101630.59;;;31.62;61.38
6028;BME280;3042;43.194;27.646;2023-09-30T08:51:03;101636.06;;;31.58;61.43
6028;BME280;3042;43.194;27.646;2023-09-30T08:53:30;101641.91;;;31.41;60.54
6028;BME280;3042;43.194;27.646;2023-09-30T08:55:58;101634.53;;;31.49;60.67
6028;BME280;3042;43.194;27.646;2023-09-30T08:58:27;101637.31;;;31.46;60.96
6028;BME280;3042;43.194;27.646;2023-09-30T09:00:55;101550.34;;;31.34;61.14
6028;BME280;3042;43.194;27.646;2023-09-30T09:03:23;101618.72;;;32.02;60.61
6028;BME280;3042;43.194;27.646;2023-09-30T09:05:54;101612.59;;;32.27;59.92
6028;BME280;3042;43.194;27.646;2023-09-30T09:08:25;101437.72;;;31.49;60.43
6028;BME280;3042;43.194;27.646;2023-09-30T09:10:57;101527.03;;;31.70;58.23
6028;BME280;3042;43.194;27.646;2023-09-30T09:13:24;101575.47;;;32.17;58.96
6028;BME280;3042;43.194;27.646;2023-09-30T09:16:06;101620.19;;;32.41;57.58
6028;BME280;3042;43.194;27.646;2023-09-30T09:18:33;101532.22;;;31.75;57.43
6028;BME280;3042;43.194;27.646;2023-09-30T09:21:09;101603.03;;;32.46;58.20
6028;BME280;3042;43.194;27.646;2023-09-30T09:23:44;101626.84;;;32.55;57.50
6028;BME280;3042;43.194;27.646;2023-09-30T09:26:12;101593.81;;;32.28;57.46
6028;BME280;3042;43.194;27.646;2023-09-30T09:28:39;101434.59;;;31.63;57.08
6028;BME280;3042;43.194;27.646;2023-09-30T09:31:21;101591.63;;;32.68;57.01
6028;BME280;3042;43.194;27.646;2023-09-30T09:33:51;101593.09;;;32.78;56.52
6028;BME280;3042;43.194;27.646;2023-09-30T09:36:19;101566.06;;;32.84;56.78
6028;BME280;3042;43.194;27.646;2023-09-30T09:38:49;101604.00;;;32.72;56.01
6028;BME280;3042;43.194;27.646;2023-09-30T09:41:19;101590.28;;;32.81;55.92
6028;BME280;3042;43.194;27.646;2023-09-30T09:43:48;101538.22;;;32.65;56.09
6028;BME280;3042;43.194;27.646;2023-09-30T09:46:17;101593.28;;;32.72;55.38
6028;BME280;3042;43.194;27.646;2023-09-30T09:48:46;101592.06;;;32.55;55.48
6028;BME280;3042;43.194;27.646;2023-09-30T09:51:13;101568.13;;;32.49;55.54
6028;BME280;3042;43.194;27.646;2023-09-30T09:53:41;101587.09;;;32.70;55.75
6028;BME280;3042;43.194;27.646;2023-09-30T09:56:11;101595.69;;;32.79;56.37
6028;BME280;3042;43.194;27.646;2023-09-30T09:58:40;101576.22;;;32.74;54.94
6028;BME280;3042;43.194;27.646;2023-09-30T10:01:09;101568.59;;;32.35;54.98
6028;BME280;3042;43.194;27.646;2023-09-30T10:03:38;101579.84;;;32.73;55.73
6028;BME280;3042;43.194;27.646;2023-09-30T10:06:06;101577.81;;;32.80;55.70
6028;BME280;3042;43.194;27.646;2023-09-30T10:08:38;101561.59;;;32.59;55.00
6028;BME280;3042;43.194;27.646;2023-09-30T10:11:07;101577.75;;;32.82;55.63
6028;BME280;3042;43.194;27.646;2023-09-30T10:13:52;101560.06;;;33.03;55.22
6028;BME280;3042;43.194;27.646;2023-09-30T10:16:49;101554.44;;;33.34;54.97
6028;BME280;3042;43.194;27.646;2023-09-30T10:19:20;101538.78;;;33.47;54.67
6028;BME280;3042;43.194;27.646;2023-09-30T10:22:20;101550.72;;;33.38;54.49
6028;BME280;3042;43.194;27.646;2023-09-30T10:24:48;101535.84;;;33.29;55.10
6028;BME280;3042;43.194;27.646;2023-09-30T10:27:35;101546.81;;;32.73;54.34
6028;BME280;3042;43.194;27.646;2023-09-30T10:30:12;101517.72;;;32.37;54.02
6028;BME280;3042;43.194;27.646;2023-09-30T10:33:13;101555.09;;;32.67;54.10
6028;BME280;3042;43.194;27.646;2023-09-30T10:35:45;101550.28;;;33.01;55.17
6028;BME280;3042;43.194;27.646;2023-09-30T10:38:37;101552.19;;;33.23;54.48
6028;BME280;3042;43.194;27.646;2023-09-30T10:41:09;101552.97;;;33.01;53.57
6028;BME280;3042;43.194;27.646;2023-09-30T10:43:41;101504.06;;;33.20;54.08
6028;BME280;3042;43.194;27.646;2023-09-30T10:46:31;101538.84;;;33.45;53.13
6028;BME280;3042;43.194;27.646;2023-09-30T10:49:29;101534.53;;;33.64;53.58
6028;BME280;3042;43.194;27.646;2023-09-30T10:51:59;101483.53;;;33.66;53.40
6028;BME280;3042;43.194;27.646;2023-09-30T10:54:27;101530.59;;;33.73;52.68
6028;BME280;3042;43.194;27.646;2023-09-30T10:56:56;101529.50;;;33.79;53.39
6028;BME280;3042;43.194;27.646;2023-09-30T10:59:25;101520.63;;;33.99;53.00
6028;BME280;3042;43.194;27.646;2023-09-30T11:01:54;101514.75;;;34.33;52.69
6028;BME280;3042;43.194;27.646;2023-09-30T11:04:21;101510.00;;;34.40;52.52
6028;BME280;3042;43.194;27.646;2023-09-30T11:06:48;101515.28;;;34.21;52.29
6028;BME280;3042;43.194;27.646;2023-09-30T11:09:17;101489.47;;;33.74;51.88
6028;BME280;3042;43.194;27.646;2023-09-30T11:11:45;101517.50;;;33.88;52.52
6028;BME280;3042;43.194;27.646;2023-09-30T11:14:19;101458.28;;;33.72;52.01
6028;BME280;3042;43.194;27.646;2023-09-30T11:16:47;101514.88;;;34.30;52.35
6028;BME280;3042;43.194;27.646;2023-09-30T11:19:15;101518.75;;;34.01;51.34
6028;BME280;3042;43.194;27.646;2023-09-30T11:21:44;101515.53;;;33.93;51.43
6028;BME280;3042;43.194;27.646;2023-09-30T11:24:10;101525.38;;;33.92;52.00
6028;BME280;3042;43.194;27.646;2023-09-30T11:26:38;101510.50;;;34.05;52.86
6028;BME280;3042;43.194;27.646;2023-09-30T11:29:08;101496.75;;;34.15;51.91
6028;BME280;3042;43.194;27.646;2023-09-30T11:31:39;101497.78;;;34.33;52.28
6028;BME280;3042;43.194;27.646;2023-09-30T11:34:08;101486.75;;;34.59;52.22
6028;BME280;3042;43.194;27.646;2023-09-30T11:36:38;101494.41;;;34.48;51.43
6028;BME280;3042;43.194;27.646;2023-09-30T11:39:05;101325.50;;;33.19;51.45
6028;BME280;3042;43.194;27.646;2023-09-30T11:41:36;101498.06;;;34.04;50.79
6028;BME280;3042;43.194;27.646;2023-09-30T11:44:06;101501.41;;;33.88;51.69
6028;BME280;3042;43.194;27.646;2023-09-30T11:46:50;101476.44;;;33.65;52.28
6028;BME280;3042;43.194;27.646;2023-09-30T11:49:29;101495.41;;;33.81;52.74
6028;BME280;3042;43.194;27.646;2023-09-30T11:52:00;101469.00;;;33.48;52.00
6028;BME280;3042;43.194;27.646;2023-09-30T11:54:31;101501.38;;;33.43;53.34
6028;BME280;3042;43.194;27.646;2023-09-30T11:57:00;101491.34;;;33.49;53.47
6028;BME280;3042;43.194;27.646;2023-09-30T11:59:27;101482.22;;;33.76;54.09
6028;BME280;3042;43.194;27.646;2023-09-30T12:01:54;101503.84;;;33.26;52.40
6028;BME280;3042;43.194;27.646;2023-09-30T12:04:21;101488.22;;;33.61;52.72
6028;BME280;3042;43.194;27.646;2023-09-30T12:06:50;101501.75;;;33.34;52.55
6028;BME280;3042;43.194;27.646;2023-09-30T12:09:19;101502.25;;;33.44;52.38
6028;BME280;3042;43.194;27.646;2023-09-30T12:11:51;101483.09;;;33.31;52.64
6028;BME280;3042;43.194;27.646;2023-09-30T12:14:19;101486.56;;;33.57;52.74
6028;BME280;3042;43.194;27.646;2023-09-30T12:16:46;101466.38;;;33.70;52.83
6028;BME280;3042;43.194;27.646;2023-09-30T12:19:15;101474.06;;;33.79;52.38
6028;BME280;3042;43.194;27.646;2023-09-30T12:21:44;101472.56;;;33.72;51.64
6028;BME280;3042;43.194;27.646;2023-09-30T12:24:14;101470.97;;;33.67;51.59
6028;BME280;3042;43.194;27.646;2023-09-30T12:26:44;101360.50;;;33.14;51.83
6028;BME280;3042;43.194;27.646;2023-09-30T12:29:14;101474.59;;;33.88;51.99
6028;BME280;3042;43.194;27.646;2023-09-30T12:31:42;101436.03;;;33.24;51.69
6028;BME280;3042;43.194;27.646;2023-09-30T12:34:09;101459.63;;;33.14;51.98
6028;BME280;3042;43.194;27.646;2023-09-30T12:36:36;101477.69;;;33.09;51.81
6028;BME280;3042;43.194;27.646;2023-09-30T12:39:04;101470.16;;;33.19;52.02
6028;BME280;3042;43.194;27.646;2023-09-30T12:41:36;101472.03;;;33.17;51.87
6028;BME280;3042;43.194;27.646;2023-09-30T12:44:05;101451.16;;;33.49;51.94
6028;BME280;3042;43.194;27.646;2023-09-30T12:46:32;101452.34;;;33.41;51.52
6028;BME280;3042;43.194;27.646;2023-09-30T12:49:02;101458.38;;;33.47;51.63
6028;BME280;3042;43.194;27.646;2023-09-30T12:51:30;101453.50;;;33.34;51.91
6028;BME280;3042;43.194;27.646;2023-09-30T12:53:57;101456.78;;;33.19;51.51
6028;BME280;3042;43.194;27.646;2023-09-30T12:56:24;101458.50;;;33.43;52.24
6028;BME280;3042;43.194;27.646;2023-09-30T12:58:51;101451.06;;;33.28;51.91
6028;BME280;3042;43.194;27.646;2023-09-30T13:01:20;101455.97;;;33.62;52.65
6028;BME280;3042;43.194;27.646;2023-09-30T13:03:48;101448.00;;;33.37;51.73
6028;BME280;3042;43.194;27.646;2023-09-30T13:06:16;101457.38;;;33.27;52.60
6028;BME280;3042;43.194;27.646;2023-09-30T13:08:43;101446.38;;;33.33;52.75